createdAt,value
2023-01-23T00:01:43.393Z,35.67
2023-01-23T00:04:15.353Z,38.53
2023-01-23T00:06:44.805Z,37.77
2023-01-23T00:09:13.662Z,34.17
2023-01-23T00:11:42.533Z,34.67
2023-01-23T00:14:12.192Z,35.67
2023-01-23T00:16:41.097Z,39.93
2023-01-23T00:19:11.883Z,37.00
2023-01-23T00:21:42.829Z,35.40
2023-01-23T00:24:13.780Z,38.23
2023-01-23T00:26:42.646Z,39.87
2023-01-23T00:29:11.510Z,39.30
2023-01-23T00:31:40.865Z,35.97
2023-01-23T00:34:14.850Z,39.77
2023-01-23T00:36:46.199Z,39.10
2023-01-23T00:39:18.403Z,41.93
2023-01-23T00:41:48.486Z,41.30
2023-01-23T00:44:18.388Z,40.63
2023-01-23T00:46:47.766Z,42.83
2023-01-23T00:49:17.926Z,34.10
2023-01-23T00:51:48.244Z,39.80
2023-01-23T00:54:17.769Z,40.67
2023-01-23T00:56:48.108Z,37.33
2023-01-23T00:59:17.587Z,37.47
2023-01-23T01:01:47.029Z,42.50
2023-01-23T01:04:16.129Z,40.00
2023-01-23T01:06:45.173Z,36.67
2023-01-23T01:09:15.809Z,39.17
2023-01-23T01:11:47.149Z,43.47
2023-01-23T01:14:17.793Z,40.03
2023-01-23T01:16:49.535Z,42.83
2023-01-23T01:19:19.314Z,52.37
2023-01-23T01:21:49.319Z,43.80
2023-01-23T01:24:20.774Z,40.87
2023-01-23T01:26:50.185Z,39.80
2023-01-23T01:29:19.277Z,45.07
2023-01-23T01:31:48.423Z,50.30
2023-01-23T01:34:17.320Z,45.77
2023-01-23T01:36:46.428Z,46.17
2023-01-23T01:39:15.527Z,43.13
2023-01-23T01:41:46.236Z,41.20
2023-01-23T01:44:18.684Z,46.27
2023-01-23T01:46:49.257Z,49.80
2023-01-23T01:49:21.597Z,39.53
2023-01-23T01:51:55.853Z,45.80
2023-01-23T01:54:29.414Z,48.33
2023-01-23T01:57:03.461Z,50.27
2023-01-23T01:59:35.684Z,45.63
2023-01-23T02:02:11.200Z,43.57
2023-01-23T02:04:43.988Z,47.17
2023-01-23T02:07:22.964Z,46.83
2023-01-23T02:09:53.318Z,50.53
2023-01-23T02:12:24.346Z,50.00
2023-01-23T02:14:53.561Z,49.77
2023-01-23T02:17:22.576Z,46.70
2023-01-23T02:20:02.798Z,46.93
2023-01-23T02:22:39.956Z,51.57
2023-01-23T02:25:17.947Z,49.43
2023-01-23T02:27:48.875Z,44.23
2023-01-23T02:30:19.147Z,46.70
2023-01-23T02:32:48.314Z,42.37
2023-01-23T02:35:26.403Z,46.40
2023-01-23T02:38:01.808Z,42.80
2023-01-23T02:40:36.525Z,46.23
2023-01-23T02:43:12.331Z,50.00
2023-01-23T02:45:46.039Z,49.57
2023-01-23T02:48:17.240Z,45.83
2023-01-23T02:50:46.490Z,45.63
2023-01-23T02:53:15.574Z,49.23
2023-01-23T02:55:45.200Z,44.63
2023-01-23T02:58:34.135Z,45.30
2023-01-23T03:01:03.887Z,46.37
2023-01-23T03:03:32.975Z,46.70
2023-01-23T03:06:04.120Z,48.27
2023-01-23T03:08:36.633Z,47.77
2023-01-23T03:11:06.338Z,42.10
2023-01-23T03:13:36.602Z,46.53
2023-01-23T03:16:08.047Z,48.83
2023-01-23T03:18:52.785Z,47.77
2023-01-23T03:21:23.398Z,47.40
2023-01-23T03:23:52.487Z,43.60
2023-01-23T03:26:21.549Z,45.83
2023-01-23T03:29:09.540Z,40.97
2023-01-23T03:31:38.648Z,48.03
2023-01-23T03:34:07.878Z,46.27
2023-01-23T03:36:37.490Z,44.10
2023-01-23T03:39:24.619Z,48.77
2023-01-23T03:41:54.699Z,41.97
2023-01-23T03:44:26.785Z,41.00
2023-01-23T03:46:55.966Z,45.23
2023-01-23T03:49:25.799Z,41.97
2023-01-23T03:52:00.383Z,40.93
2023-01-23T03:54:31.313Z,42.43
2023-01-23T03:57:00.395Z,39.87
2023-01-23T03:59:56.797Z,41.53
2023-01-23T04:02:30.518Z,41.83
2023-01-23T04:04:59.449Z,42.63
2023-01-23T04:07:28.547Z,42.93
2023-01-23T04:09:57.271Z,44.27
2023-01-23T04:12:27.585Z,43.07
2023-01-23T04:14:58.228Z,40.87
2023-01-23T04:17:27.474Z,44.40
2023-01-23T04:19:56.457Z,42.07
2023-01-23T04:22:25.566Z,40.20
2023-01-23T04:24:54.723Z,41.93
2023-01-23T04:27:23.955Z,42.27
2023-01-23T04:29:53.769Z,42.40
2023-01-23T04:32:24.402Z,38.70
2023-01-23T04:34:53.632Z,37.20
2023-01-23T04:37:22.723Z,38.13
2023-01-23T04:39:52.568Z,42.00
2023-01-23T04:42:21.527Z,37.57
2023-01-23T04:45:05.368Z,41.20
2023-01-23T04:48:01.839Z,39.03
2023-01-23T04:50:31.034Z,42.93
2023-01-23T04:52:59.884Z,41.40
2023-01-23T04:55:29.411Z,41.20
2023-01-23T04:58:00.106Z,40.47
2023-01-23T05:00:33.081Z,44.07
2023-01-23T05:03:04.999Z,40.93
2023-01-23T05:05:34.596Z,43.50
2023-01-23T05:08:03.867Z,39.53
2023-01-23T05:10:32.907Z,38.20
2023-01-23T05:13:09.639Z,36.90
2023-01-23T05:15:38.909Z,37.00
2023-01-23T05:18:09.680Z,37.63
2023-01-23T05:20:38.921Z,35.03
2023-01-23T05:23:07.941Z,43.80
2023-01-23T05:25:46.038Z,38.97
2023-01-23T05:28:15.176Z,36.90
2023-01-23T05:30:49.912Z,35.20
2023-01-23T05:33:35.668Z,38.20
2023-01-23T05:36:04.980Z,37.30
2023-01-23T05:38:34.524Z,38.50
2023-01-23T05:41:05.738Z,38.13
2023-01-23T05:43:53.476Z,39.37
2023-01-23T05:46:46.971Z,38.07
2023-01-23T05:49:17.435Z,34.97
2023-01-23T05:51:49.687Z,40.10
2023-01-23T05:54:18.593Z,42.07
2023-01-23T05:56:48.408Z,39.93
2023-01-23T05:59:35.903Z,40.83
2023-01-23T06:02:25.163Z,41.97
2023-01-23T06:05:04.464Z,41.37
2023-01-23T06:07:59.536Z,37.07
2023-01-23T06:10:28.412Z,40.27
2023-01-23T06:12:58.658Z,40.20
2023-01-23T06:15:27.749Z,42.17
2023-01-23T06:17:57.942Z,42.40
2023-01-23T06:20:29.297Z,37.07
2023-01-23T06:22:58.815Z,44.80
2023-01-23T06:25:28.954Z,54.07
2023-01-23T06:28:00.622Z,47.67
2023-01-23T06:30:32.565Z,47.73
2023-01-23T06:33:01.958Z,42.50
2023-01-23T06:35:40.628Z,42.03
2023-01-23T06:38:10.648Z,44.50
2023-01-23T06:40:41.287Z,44.90
2023-01-23T06:43:26.524Z,46.27
2023-01-23T06:45:56.327Z,44.00
2023-01-23T06:48:26.123Z,45.33
2023-01-23T06:51:00.811Z,50.13
2023-01-23T06:53:30.520Z,52.43
2023-01-23T06:56:02.003Z,47.53
2023-01-23T06:58:34.615Z,47.87
2023-01-23T07:01:10.581Z,53.03
2023-01-23T07:04:15.296Z,47.47
2023-01-23T07:06:47.652Z,50.37
2023-01-23T07:09:18.409Z,53.93
2023-01-23T07:11:54.448Z,48.47
2023-01-23T07:14:24.152Z,52.80
2023-01-23T07:16:56.046Z,55.13
2023-01-23T07:19:26.670Z,54.63
2023-01-23T07:21:58.459Z,49.63
2023-01-23T07:24:28.550Z,61.03
2023-01-23T07:26:57.456Z,56.40
2023-01-23T07:29:26.396Z,54.43
2023-01-23T07:31:55.641Z,54.80
2023-01-23T07:34:24.660Z,48.90
2023-01-23T07:36:53.685Z,60.87
2023-01-23T07:39:24.633Z,57.77
2023-01-23T07:41:53.684Z,61.17
2023-01-23T07:44:23.664Z,51.27
2023-01-23T07:46:52.840Z,57.17
2023-01-23T07:49:22.098Z,55.10
2023-01-23T07:51:51.100Z,56.57
2023-01-23T07:54:20.386Z,62.23
2023-01-23T07:56:52.518Z,52.27
2023-01-23T07:59:21.821Z,56.07
2023-01-23T08:01:52.576Z,54.63
2023-01-23T08:04:22.175Z,48.27
2023-01-23T08:06:51.328Z,52.30
2023-01-23T08:09:20.135Z,54.30
2023-01-23T08:11:49.222Z,48.93
2023-01-23T08:14:19.666Z,54.60
2023-01-23T08:16:50.858Z,55.80
2023-01-23T08:19:20.606Z,49.77
2023-01-23T08:21:49.616Z,52.23
2023-01-23T08:24:18.799Z,53.73
2023-01-23T08:26:47.842Z,60.93
2023-01-23T08:29:18.540Z,55.87
2023-01-23T08:31:47.804Z,53.30
2023-01-23T08:34:16.936Z,51.30
2023-01-23T08:36:45.915Z,52.37
2023-01-23T08:39:14.989Z,54.67
2023-01-23T08:41:43.999Z,47.80
2023-01-23T08:44:12.924Z,50.80
2023-01-23T08:46:44.959Z,44.97
2023-01-23T08:49:14.032Z,46.87
2023-01-23T08:51:42.934Z,50.33
2023-01-23T08:54:11.661Z,48.57
2023-01-23T08:56:41.305Z,43.93
2023-01-23T08:59:10.461Z,44.90
2023-01-23T09:01:39.515Z,43.93
2023-01-23T09:04:10.229Z,44.30
2023-01-23T09:06:39.762Z,38.60
2023-01-23T09:09:08.803Z,44.83
2023-01-23T09:11:37.890Z,37.90
2023-01-23T09:14:06.631Z,47.30
2023-01-23T09:16:35.890Z,43.77
2023-01-23T09:19:04.819Z,45.53
2023-01-23T09:21:35.388Z,52.13
2023-01-23T09:24:04.360Z,49.60
2023-01-23T09:26:33.491Z,49.23
2023-01-23T09:29:02.956Z,56.63
2023-01-23T09:31:32.271Z,51.07
2023-01-23T09:34:03.368Z,49.83
2023-01-23T09:36:42.336Z,53.80
2023-01-23T09:39:14.110Z,56.40
2023-01-23T09:41:45.278Z,55.27
2023-01-23T09:44:20.395Z,47.13
2023-01-23T09:46:53.607Z,51.43
2023-01-23T09:49:28.488Z,51.60
2023-01-23T09:52:02.371Z,47.47
2023-01-23T09:54:43.231Z,47.00
2023-01-23T09:57:18.609Z,47.07
2023-01-23T10:00:00.619Z,45.40
2023-01-23T10:02:30.477Z,43.13
2023-01-23T10:05:02.652Z,49.33
2023-01-23T10:07:48.422Z,49.37
2023-01-23T10:10:47.335Z,50.17
2023-01-23T10:13:19.495Z,45.87
2023-01-23T10:16:07.171Z,51.47
2023-01-23T10:18:42.635Z,47.70
2023-01-23T10:21:22.434Z,50.50
2023-01-23T10:24:03.037Z,50.20
2023-01-23T10:26:40.208Z,47.03
2023-01-23T10:29:22.442Z,44.73
2023-01-23T10:31:55.836Z,45.17
2023-01-23T10:34:34.483Z,46.63
2023-01-23T10:37:16.569Z,52.20
2023-01-23T10:39:51.391Z,41.27
2023-01-23T10:42:24.082Z,42.30
2023-01-23T10:44:53.185Z,50.00
2023-01-23T10:47:31.993Z,52.57
2023-01-23T10:50:02.058Z,51.13
2023-01-23T10:52:34.928Z,51.90
2023-01-23T10:55:06.243Z,47.70
2023-01-23T10:57:46.715Z,54.53
2023-01-23T11:00:23.752Z,49.00
2023-01-23T11:02:52.728Z,56.60
2023-01-23T11:05:51.548Z,56.87
2023-01-23T11:08:27.410Z,58.23
2023-01-23T11:11:07.131Z,52.07
2023-01-23T11:13:37.811Z,55.03
2023-01-23T11:16:07.209Z,56.63
2023-01-23T11:18:42.666Z,56.43
2023-01-23T11:21:22.610Z,56.33
2023-01-23T11:24:09.122Z,55.13
2023-01-23T11:26:39.770Z,59.80
2023-01-23T11:29:24.756Z,55.40
2023-01-23T11:31:57.470Z,55.20
2023-01-23T11:34:30.798Z,68.20
2023-01-23T11:37:09.306Z,54.13
2023-01-23T11:39:45.727Z,68.80
2023-01-23T11:42:16.024Z,61.13
2023-01-23T11:44:47.363Z,59.40
2023-01-23T11:47:55.321Z,60.83
2023-01-23T11:50:43.705Z,63.17
2023-01-23T11:53:33.637Z,58.53
2023-01-23T11:56:30.909Z,64.77
2023-01-23T11:59:36.835Z,63.50
2023-01-23T12:02:30.456Z,64.70
2023-01-23T12:05:16.887Z,67.23
2023-01-23T12:07:56.723Z,66.13
2023-01-23T12:10:30.291Z,71.13
2023-01-23T12:13:16.714Z,71.43
2023-01-23T12:15:51.203Z,74.93
2023-01-23T12:18:35.625Z,77.90
2023-01-23T12:21:14.170Z,72.67
2023-01-23T12:23:58.108Z,81.37
2023-01-23T12:26:29.675Z,76.20
2023-01-23T12:29:28.411Z,79.70
2023-01-23T12:32:08.490Z,78.57
2023-01-23T12:37:51.284Z,80.37
2023-01-23T12:40:26.398Z,79.93
2023-01-23T12:43:01.256Z,77.70
2023-01-23T12:45:32.260Z,82.67
2023-01-23T12:48:07.969Z,71.60
2023-01-23T12:50:43.736Z,68.33
2023-01-23T12:53:15.811Z,64.87
2023-01-23T12:55:58.724Z,58.27
2023-01-23T12:58:31.586Z,74.63
2023-01-23T13:01:11.707Z,72.67
2023-01-23T13:04:05.363Z,61.60
2023-01-23T13:06:57.387Z,62.93
2023-01-23T13:09:36.371Z,65.70
2023-01-23T13:12:22.255Z,70.97
2023-01-23T13:15:13.372Z,70.17
2023-01-23T13:17:46.565Z,72.83
2023-01-23T13:20:42.375Z,71.43
2023-01-23T13:23:30.347Z,73.00
2023-01-23T13:26:34.106Z,74.97
2023-01-23T13:29:04.817Z,73.07
2023-01-23T13:31:45.282Z,75.77
2023-01-23T13:34:37.638Z,75.43
2023-01-23T13:37:51.449Z,68.63
2023-01-23T13:40:23.202Z,79.73
2023-01-23T13:42:54.075Z,73.10
2023-01-23T13:45:33.015Z,73.40
2023-01-23T14:20:39.739Z,72.07
2023-01-23T14:23:19.463Z,76.23
2023-01-23T14:25:49.606Z,73.10
2023-01-23T14:28:20.351Z,67.83
2023-01-23T14:30:57.960Z,70.93
2023-01-23T14:33:29.710Z,70.10
2023-01-23T14:35:58.931Z,76.60
2023-01-23T14:38:33.850Z,76.93
2023-01-23T14:41:06.729Z,75.17
2023-01-23T14:43:37.976Z,67.43
2023-01-23T14:46:13.872Z,84.37
2023-01-23T14:48:47.827Z,86.23
2023-01-23T14:51:21.472Z,87.23
2023-01-23T14:53:56.713Z,89.53
2023-01-23T14:56:29.139Z,90.87
2023-01-23T14:59:00.786Z,81.90
2023-01-23T15:01:30.455Z,89.90
2023-01-23T15:04:04.582Z,100.70
2023-01-23T15:06:35.793Z,90.30
2023-01-23T15:09:17.351Z,92.33
2023-01-23T15:11:46.953Z,101.93
2023-01-23T15:14:26.110Z,97.67
2023-01-23T15:17:02.072Z,97.97
2023-01-23T15:19:33.860Z,95.33
2023-01-23T15:22:19.106Z,101.13
2023-01-23T15:24:48.315Z,92.40
2023-01-23T15:27:29.060Z,104.40
2023-01-23T15:30:38.283Z,93.37
2023-01-23T15:33:25.422Z,99.53
2023-01-23T15:36:06.008Z,95.73
2023-01-23T15:38:35.272Z,99.00
2023-01-23T15:41:10.984Z,98.83
2023-01-23T15:43:39.911Z,120.10
2023-01-23T15:46:11.389Z,116.90
2023-01-23T15:48:40.565Z,116.93
2023-01-23T15:51:13.622Z,108.40
2023-01-23T15:53:42.790Z,118.70
2023-01-23T15:56:29.013Z,103.03
2023-01-23T15:58:59.245Z,133.23
2023-01-23T16:01:28.403Z,125.07
2023-01-23T16:03:57.534Z,115.93
2023-01-23T16:06:28.177Z,121.70
2023-01-23T16:09:05.264Z,119.53
2023-01-23T16:11:38.684Z,111.47
2023-01-23T16:14:07.887Z,122.80
2023-01-23T16:16:37.128Z,114.13
2023-01-23T16:19:06.267Z,107.70
2023-01-23T16:21:36.740Z,108.77
2023-01-23T16:24:07.381Z,120.67
2023-01-23T16:26:36.779Z,114.33
2023-01-23T16:29:13.774Z,119.87
2023-01-23T16:31:43.125Z,118.73
2023-01-23T16:34:12.220Z,116.70
2023-01-23T16:36:43.578Z,120.10
2023-01-23T16:39:18.093Z,126.47
2023-01-23T16:41:47.674Z,126.63
2023-01-23T16:44:18.906Z,126.87
2023-01-23T16:46:48.444Z,123.73
2023-01-23T16:49:17.806Z,122.27
2023-01-23T16:51:57.642Z,118.83
2023-01-23T16:54:27.604Z,110.03
2023-01-23T16:56:58.362Z,116.47
2023-01-23T16:59:34.624Z,116.27
2023-01-23T17:02:13.542Z,111.37
2023-01-23T17:04:42.671Z,110.30
2023-01-23T17:07:15.789Z,115.57
2023-01-23T17:09:45.187Z,109.00
2023-01-23T17:12:17.381Z,116.00
2023-01-23T17:14:47.195Z,124.73
2023-01-23T17:17:20.771Z,120.50
2023-01-23T17:19:50.040Z,123.70
2023-01-23T17:22:24.544Z,108.00
2023-01-23T17:24:53.915Z,109.40
2023-01-23T17:27:23.216Z,116.87
2023-01-23T17:29:52.327Z,123.40
2023-01-23T17:32:29.544Z,108.90
2023-01-23T17:35:01.809Z,115.20
2023-01-23T17:37:35.892Z,116.17
2023-01-23T17:40:05.555Z,104.77
2023-01-23T17:42:34.368Z,112.47
2023-01-23T17:45:04.850Z,101.00
2023-01-23T17:47:35.193Z,104.53
2023-01-23T17:50:04.751Z,109.90
2023-01-23T17:52:35.444Z,102.13
2023-01-23T17:55:05.487Z,114.40
2023-01-23T17:57:34.712Z,106.83
2023-01-23T18:00:04.861Z,99.23
2023-01-23T18:02:39.614Z,101.93
2023-01-23T18:05:11.888Z,114.70
2023-01-23T18:07:53.018Z,111.57
2023-01-23T18:10:25.628Z,114.47
2023-01-23T18:13:04.390Z,114.50
2023-01-23T18:15:38.874Z,106.60
2023-01-23T18:18:22.216Z,111.67
2023-01-23T18:20:54.826Z,101.37
2023-01-23T18:23:27.220Z,103.30
2023-01-23T18:26:07.527Z,104.60
2023-01-23T18:28:46.510Z,100.60
2023-01-23T18:31:22.062Z,110.73
2023-01-23T18:34:05.094Z,99.67
2023-01-23T18:36:49.690Z,105.40
2023-01-23T18:39:46.475Z,104.07
2023-01-23T18:42:20.354Z,107.90
2023-01-23T18:44:56.409Z,105.43
2023-01-23T18:47:26.391Z,104.60
2023-01-23T18:49:56.495Z,116.20
2023-01-23T18:52:37.112Z,111.37
2023-01-23T18:55:17.175Z,113.07
2023-01-23T18:58:10.950Z,113.80
2023-01-23T19:00:47.006Z,111.70
2023-01-23T19:03:19.510Z,109.90
2023-01-23T19:05:49.851Z,114.17
2023-01-23T19:08:28.312Z,113.70
2023-01-23T19:11:06.506Z,103.43
2023-01-23T19:13:45.818Z,108.20
2023-01-23T19:16:23.744Z,112.63
2023-01-23T19:19:14.659Z,110.67
2023-01-23T19:21:47.892Z,108.17
2023-01-23T19:24:21.585Z,106.43
2023-01-23T19:26:54.988Z,102.93
2023-01-23T19:29:25.760Z,106.47
2023-01-23T19:32:05.011Z,111.20
2023-01-23T19:34:36.136Z,109.00
2023-01-23T19:37:06.081Z,105.40
2023-01-23T19:39:36.782Z,107.13
2023-01-23T19:42:14.718Z,113.60
2023-01-23T19:44:45.952Z,111.60
2023-01-23T19:47:18.102Z,111.23
2023-01-23T19:49:48.467Z,113.23
2023-01-23T19:52:24.299Z,111.67
2023-01-23T19:54:54.724Z,102.53
2023-01-23T19:57:29.566Z,119.33
2023-01-23T20:00:02.290Z,112.07
2023-01-23T20:02:41.955Z,103.07
2023-01-23T20:05:13.606Z,111.60
2023-01-23T20:07:44.001Z,105.00
2023-01-23T20:10:14.892Z,109.33
2023-01-23T20:12:51.878Z,107.10
2023-01-23T20:15:24.459Z,107.60
2023-01-23T20:17:55.508Z,106.67
2023-01-23T20:20:25.990Z,107.70
2023-01-23T20:22:56.287Z,104.03
2023-01-23T20:25:26.933Z,111.40
2023-01-23T20:27:59.140Z,109.47
2023-01-23T20:30:31.500Z,101.90
2023-01-23T20:33:05.437Z,98.37
2023-01-23T20:35:38.469Z,102.20
2023-01-23T20:38:09.826Z,103.63
2023-01-23T20:40:40.427Z,103.97
2023-01-23T20:43:12.627Z,103.83
2023-01-23T20:45:48.889Z,99.43
2023-01-23T20:48:20.039Z,96.70
2023-01-23T20:50:56.234Z,101.93
2023-01-23T20:53:31.293Z,93.00
2023-01-23T20:56:02.749Z,87.70
2023-01-23T20:58:52.114Z,97.80
2023-01-23T21:01:24.223Z,96.90
2023-01-23T21:03:54.705Z,97.33
2023-01-23T21:06:25.108Z,92.70
2023-01-23T21:08:57.479Z,98.10
2023-01-23T21:11:28.667Z,90.67
2023-01-23T21:14:01.205Z,86.50
2023-01-23T21:16:31.750Z,91.37
2023-01-23T21:19:02.848Z,88.90
2023-01-23T21:21:33.897Z,88.50
2023-01-23T21:24:03.959Z,91.10
2023-01-23T21:26:35.091Z,92.00
2023-01-23T21:29:08.351Z,90.27
2023-01-23T21:31:39.428Z,93.47
2023-01-23T21:34:10.805Z,96.07
2023-01-23T21:36:41.860Z,95.43
2023-01-23T21:39:14.599Z,85.73
2023-01-23T21:41:43.947Z,101.23
2023-01-23T21:44:15.321Z,91.83
2023-01-23T21:46:46.625Z,99.50
2023-01-23T21:49:15.738Z,98.23
2023-01-23T21:51:45.198Z,92.53
2023-01-23T21:54:14.611Z,95.80
2023-01-23T21:56:43.632Z,98.63
2023-01-23T21:59:14.705Z,90.77
2023-01-23T22:01:42.955Z,94.10
2023-01-23T22:04:13.573Z,101.33
2023-01-23T22:06:44.249Z,100.13
2023-01-23T22:09:17.379Z,101.07
2023-01-23T22:11:46.622Z,98.73
2023-01-23T22:14:17.995Z,92.10
2023-01-23T22:16:49.441Z,96.83
2023-01-23T22:19:24.232Z,99.70
2023-01-23T22:21:54.752Z,91.40
2023-01-23T22:24:23.797Z,94.40
2023-01-23T22:26:53.129Z,96.33
2023-01-23T22:29:24.207Z,90.90
2023-01-23T22:31:53.523Z,93.23
2023-01-23T22:34:22.332Z,92.10
2023-01-23T22:36:51.260Z,100.60
2023-01-23T22:39:20.629Z,93.97
2023-01-23T22:41:50.649Z,105.93
2023-01-23T22:44:19.815Z,95.20
2023-01-23T22:46:51.561Z,98.90
2023-01-23T22:49:20.775Z,95.57
2023-01-23T22:51:51.509Z,94.70
2023-01-23T22:54:20.681Z,101.20
2023-01-23T22:56:49.805Z,96.57
2023-01-23T22:59:18.833Z,102.37
2023-01-23T23:01:49.422Z,99.30
2023-01-23T23:04:18.587Z,91.83
2023-01-23T23:06:47.604Z,110.93
2023-01-23T23:09:16.368Z,99.23
2023-01-23T23:11:47.478Z,100.57
2023-01-23T23:14:16.576Z,94.23
2023-01-23T23:16:46.181Z,100.43
2023-01-23T23:19:16.691Z,97.97
2023-01-23T23:21:45.444Z,101.27
2023-01-23T23:24:15.128Z,93.53
2023-01-23T23:26:44.168Z,96.03
2023-01-23T23:29:13.191Z,95.40
2023-01-23T23:31:42.134Z,95.83
2023-01-23T23:34:10.980Z,94.03
2023-01-23T23:36:41.788Z,105.17
2023-01-23T23:39:10.823Z,96.93
2023-01-23T23:41:39.903Z,97.00
2023-01-23T23:44:09.075Z,92.93
2023-01-23T23:46:37.983Z,97.03
2023-01-23T23:49:07.262Z,97.97
2023-01-23T23:51:36.303Z,100.00
2023-01-23T23:54:07.376Z,87.77
2023-01-23T23:56:36.537Z,92.67
2023-01-23T23:59:05.613Z,96.70
